Time;durP1;ratioP1;P1;durP2;ratioP2;P2;SDS_P1;SDS_P2;PMS_P1;PMS_P2;Temp;Humidity;BMP_temperature;BMP_pressure;BME280_temperature;BME280_humidity;BME280_pressure;Samples;Min_cycle;Max_cycle;Signal;HPM_P1;HPM_P2
2022/04/06 00:01:59;;;;;;;6.40;5.07;;;;;;;7.41;100.00;94917.25;6069383;23;20176;-81
2022/04/06 00:04:24;;;;;;;5.67;5.07;;;;;;;7.50;100.00;94911.22;6070360;23;20163;-80
2022/04/06 00:06:52;;;;;;;5.33;4.80;;;;;;;7.43;100.00;94910.19;6094374;23;20562;-81
2022/04/06 00:09:19;;;;;;;5.60;5.03;;;;;;;7.38;100.00;94913.19;6094264;23;20618;-79
2022/04/06 00:11:44;;;;;;;6.83;5.53;;;;;;;7.43;100.00;94911.97;6069648;23;20153;-81
2022/04/06 00:14:10;;;;;;;6.93;5.57;;;;;;;7.33;100.00;94899.06;6070712;23;20552;-80
2022/04/06 00:16:35;;;;;;;5.27;4.77;;;;;;;7.31;100.00;94903.56;6070116;23;20191;-81
2022/04/06 00:19:00;;;;;;;6.17;5.57;;;;;;;7.35;100.00;94908.31;6094585;23;20180;-80
2022/04/06 00:21:27;;;;;;;6.47;5.17;;;;;;;7.36;100.00;94899.59;6069404;23;20184;-80
2022/04/06 00:23:53;;;;;;;6.00;5.40;;;;;;;7.41;100.00;94898.34;6070266;23;20202;-79
2022/04/06 00:26:18;;;;;;;6.00;5.40;;;;;;;7.39;100.00;94888.97;6094246;23;20173;-79
2022/04/06 00:28:43;;;;;;;5.70;4.83;;;;;;;7.45;100.00;94890.19;6070241;23;20161;-80
2022/04/06 00:31:11;;;;;;;6.70;5.20;;;;;;;7.35;100.00;94892.81;6069557;23;20168;-81
2022/04/06 00:33:37;;;;;;;4.77;4.37;;;;;;;7.42;100.00;94887.91;6069511;23;20164;-80
2022/04/06 00:36:02;;;;;;;6.10;5.37;;;;;;;7.42;100.00;94890.47;6094740;23;20185;-80
2022/04/06 00:38:27;;;;;;;5.73;5.13;;;;;;;7.46;100.00;94896.16;6094360;23;20165;-79
2022/04/06 00:40:52;;;;;;;6.20;4.77;;;;;;;7.60;99.46;94893.09;6069814;23;20165;-82
2022/04/06 00:43:18;;;;;;;7.13;5.10;;;;;;;7.52;99.92;94888.66;6069374;23;20161;-81
2022/04/06 00:45:44;;;;;;;8.37;5.30;;;;;;;7.55;99.68;94882.38;6094038;23;20635;-79
2022/04/06 00:48:10;;;;;;;5.30;4.77;;;;;;;7.54;99.99;94883.34;6069964;23;20199;-80
2022/04/06 00:50:36;;;;;;;5.17;4.60;;;;;;;7.54;99.52;94876.38;6069724;23;20248;-80
2022/04/06 00:53:02;;;;;;;5.60;4.80;;;;;;;7.56;99.31;94871.88;6045681;23;20179;-82
2022/04/06 00:55:32;;;;;;;4.87;4.13;;;;;;;7.62;98.92;94871.31;6045792;23;20670;-81
2022/04/06 00:57:58;;;;;;;7.17;5.37;;;;;;;7.63;98.96;94860.00;6045836;23;20153;-80
2022/04/06 01:00:23;;;;;;;5.63;4.83;;;;;;;7.56;99.15;94858.16;6069837;23;20157;-80
2022/04/06 01:02:49;;;;;;;5.83;4.70;;;;;;;7.51;99.41;94856.03;6094609;23;20602;-80
2022/04/06 01:05:14;;;;;;;7.07;4.70;;;;;;;7.61;99.17;94864.53;6093559;23;20587;-81
2022/04/06 01:07:41;;;;;;;4.23;3.83;;;;;;;7.65;98.46;94852.91;6094074;23;20227;-80
2022/04/06 01:10:07;;;;;;;4.67;4.17;;;;;;;7.60;99.34;94862.09;6087102;23;20181;-79
2022/04/06 01:12:34;;;;;;;5.43;4.47;;;;;;;7.62;99.28;94868.72;6086009;23;20697;-80
2022/04/06 01:14:59;;;;;;;4.23;3.83;;;;;;;7.57;99.59;94865.75;6069731;23;20161;-80
2022/04/06 01:17:31;;;;;;;6.33;4.43;;;;;;;7.62;99.55;94858.41;6069588;23;20183;-80
2022/04/06 01:19:56;;;;;;;5.53;4.50;;;;;;;7.64;99.65;94871.97;6095070;23;20140;-81
2022/04/06 01:22:22;;;;;;;5.53;4.33;;;;;;;7.57;99.73;94860.59;6068937;23;20192;-80
2022/04/06 01:24:48;;;;;;;5.33;4.03;;;;;;;7.56;99.88;94864.13;6093704;23;20148;-80
2022/04/06 01:27:14;;;;;;;4.77;3.83;;;;;;;7.63;99.71;94854.03;6069542;23;20206;-81
2022/04/06 01:29:42;;;;;;;4.90;4.40;;;;;;;7.61;99.47;94855.97;6093414;23;20164;-80
2022/04/06 01:32:12;;;;;;;5.10;4.50;;;;;;;7.62;99.21;94853.22;6069650;23;20133;-80
2022/04/06 01:34:39;;;;;;;4.93;4.33;;;;;;;7.57;99.17;94859.78;6093473;23;20155;-80
2022/04/06 01:37:06;;;;;;;4.40;4.00;;;;;;;7.61;99.08;94855.97;6044915;23;20176;-80
2022/04/06 01:39:32;;;;;;;6.20;4.40;;;;;;;7.52;98.82;94857.66;6045750;23;20200;-81
2022/04/06 01:41:58;;;;;;;6.90;4.20;;;;;;;7.48;99.24;94855.47;6068768;23;20247;-80
2022/04/06 01:44:23;;;;;;;5.33;4.50;;;;;;;7.52;99.04;94852.47;6069674;23;20206;-80
2022/04/06 01:46:48;;;;;;;7.50;4.77;;;;;;;7.55;98.98;94847.00;6093378;23;20176;-79
2022/04/06 01:52:12;;;;;;;4.77;4.27;;;;;;;7.49;98.88;94846.78;6093287;23;20167;-80
2022/04/06 01:54:46;;;;;;;4.73;3.70;;;;;;;7.60;98.33;94849.97;6093687;23;20548;-80
2022/04/06 01:57:12;;;;;;;6.27;4.37;;;;;;;7.69;97.68;94834.56;6093377;23;20619;-80
2022/04/06 01:59:37;;;;;;;5.50;4.27;;;;;;;7.65;98.12;94847.75;6070178;23;20164;-82
2022/04/06 02:02:03;;;;;;;6.07;4.13;;;;;;;7.70;97.85;94849.09;6093210;23;20177;-80
2022/04/06 02:04:29;;;;;;;5.10;4.17;;;;;;;7.67;97.80;94843.25;6070536;23;20153;-82
2022/04/06 02:06:54;;;;;;;6.07;4.20;;;;;;;7.67;97.86;94839.84;6095864;23;20176;-82
2022/04/06 02:09:20;;;;;;;5.87;3.90;;;;;;;7.59;98.66;94832.81;6094476;23;20599;-82
2022/04/06 02:11:45;;;;;;;4.33;3.93;;;;;;;7.65;98.00;94842.59;6069328;23;20164;-82
2022/04/06 02:14:11;;;;;;;6.23;4.43;;;;;;;7.68;97.80;94823.38;6093902;23;20161;-82
2022/04/06 02:16:37;;;;;;;5.90;3.90;;;;;;;7.66;97.98;94841.63;6094135;23;20173;-83
2022/04/06 02:19:03;;;;;;;5.00;4.40;;;;;;;7.67;98.07;94832.91;6094463;23;20160;-82
2022/04/06 02:21:28;;;;;;;5.93;3.93;;;;;;;7.60;98.31;94831.91;6069107;23;20176;-82
2022/04/06 02:23:53;;;;;;;6.20;4.77;;;;;;;7.62;98.31;94840.31;6070170;23;20481;-82
2022/04/06 02:26:19;;;;;;;4.80;4.23;;;;;;;7.51;98.66;94835.34;6070118;23;20187;-82
2022/04/06 02:28:44;;;;;;;4.53;4.03;;;;;;;7.63;98.31;94828.19;6094088;23;20157;-82
2022/04/06 02:31:09;;;;;;;4.03;3.63;;;;;;;7.62;97.84;94832.56;6069337;23;20227;-81
2022/04/06 02:33:34;;;;;;;5.50;4.17;;;;;;;7.59;98.30;94822.50;6068775;23;20161;-81
2022/04/06 02:36:00;;;;;;;5.30;4.53;;;;;;;7.55;98.48;94821.19;6093610;23;20177;-79
2022/04/06 02:38:25;;;;;;;6.00;4.43;;;;;;;7.61;98.27;94815.44;6068964;23;20186;-81
2022/04/06 02:40:50;;;;;;;4.57;3.80;;;;;;;7.59;98.46;94814.75;6093216;23;20208;-81
2022/04/06 02:43:16;;;;;;;4.47;3.53;;;;;;;7.63;98.29;94810.09;6092526;23;20157;-80
2022/04/06 02:45:41;;;;;;;4.70;4.17;;;;;;;7.62;98.71;94809.28;6069112;23;20188;-82
2022/04/06 02:48:06;;;;;;;6.60;3.93;;;;;;;7.62;98.51;94811.88;6069295;23;20239;-82
2022/04/06 02:50:32;;;;;;;4.00;3.43;;;;;;;7.51;99.51;94806.94;6093252;23;20164;-80
2022/04/06 02:52:58;;;;;;;5.03;4.13;;;;;;;7.51;99.84;94809.53;6068376;23;20157;-81
2022/04/06 02:55:23;;;;;;;8.30;4.20;;;;;;;7.63;98.77;94803.16;6093085;23;20657;-80
2022/04/06 02:57:48;;;;;;;4.20;3.80;;;;;;;7.62;99.45;94804.13;6093079;23;20157;-80
2022/04/06 03:00:15;;;;;;;5.27;4.00;;;;;;;7.58;99.94;94805.38;6093115;23;20156;-81
2022/04/06 03:02:40;;;;;;;4.70;3.70;;;;;;;7.51;100.00;94809.53;6068170;23;20184;-80
2022/04/06 03:05:06;;;;;;;5.13;3.97;;;;;;;7.53;100.00;94809.38;6094730;23;20512;-81
2022/04/06 03:07:31;;;;;;;5.33;4.27;;;;;;;7.44;100.00;94808.47;6094604;23;20204;-80
2022/04/06 03:09:57;;;;;;;5.40;4.03;;;;;;;7.46;100.00;94801.38;6093312;23;20157;-81
2022/04/06 03:12:22;;;;;;;6.47;4.93;;;;;;;7.45;100.00;94798.94;6069177;23;20171;-82
2022/04/06 03:14:47;;;;;;;5.27;3.80;;;;;;;7.42;100.00;94791.47;6095523;23;20175;-81
2022/04/06 03:17:15;;;;;;;5.07;4.03;;;;;;;7.41;100.00;94793.25;6069681;23;20184;-82
2022/04/06 03:19:41;;;;;;;6.40;4.30;;;;;;;7.35;100.00;94793.84;6093638;23;20153;-81
2022/04/06 03:22:06;;;;;;;4.90;3.97;;;;;;;7.37;100.00;94785.00;6092228;23;20177;-81
2022/04/06 03:24:32;;;;;;;6.67;4.67;;;;;;;7.37;100.00;94784.19;6070237;23;20539;-81
2022/04/06 03:26:57;;;;;;;4.47;4.07;;;;;;;7.32;100.00;94776.03;6094794;23;20224;-81
2022/04/06 03:29:22;;;;;;;6.27;4.30;;;;;;;7.30;100.00;94771.03;6070883;23;20168;-81
2022/04/06 03:31:48;;;;;;;4.93;4.10;;;;;;;7.37;100.00;94772.06;6070121;23;20615;-81
2022/04/06 03:34:13;;;;;;;6.40;4.33;;;;;;;7.28;100.00;94769.56;6071065;23;20196;-80
2022/04/06 03:36:38;;;;;;;6.07;4.70;;;;;;;7.30;100.00;94777.97;6069602;23;20541;-81
2022/04/06 03:39:04;;;;;;;8.43;5.23;;;;;;;7.23;100.00;94779.50;6096174;23;20153;-82
2022/04/06 03:41:29;;;;;;;10.50;5.57;;;;;;;7.17;100.00;94777.53;6095459;23;20220;-83
2022/04/06 03:43:54;;;;;;;8.03;5.10;;;;;;;7.16;100.00;94783.66;6095659;23;20160;-82
2022/04/06 03:46:19;;;;;;;5.47;4.33;;;;;;;7.10;100.00;94777.28;6070603;23;20200;-81
2022/04/06 03:48:45;;;;;;;6.57;4.90;;;;;;;7.17;100.00;94772.38;6070688;23;20153;-82
2022/04/06 03:51:10;;;;;;;5.73;4.63;;;;;;;7.20;100.00;94774.66;6070177;23;20611;-81
2022/04/06 03:53:35;;;;;;;6.13;5.10;;;;;;;7.17;100.00;94769.78;6070270;23;20180;-82
2022/04/06 03:56:01;;;;;;;6.37;5.33;;;;;;;7.09;100.00;94765.34;6097462;23;20176;-80
2022/04/06 03:58:26;;;;;;;7.57;5.13;;;;;;;7.17;100.00;94762.84;6066562;23;20527;-81
2022/04/06 04:00:51;;;;;;;5.63;4.97;;;;;;;7.14;100.00;94754.56;6073056;23;20188;-80
2022/04/06 04:03:17;;;;;;;7.63;5.47;;;;;;;7.12;100.00;94762.47;6098310;23;20155;-81
2022/04/06 04:05:43;;;;;;;6.63;4.90;;;;;;;7.12;100.00;94766.81;6072018;23;20264;-81
2022/04/06 04:08:08;;;;;;;6.50;5.30;;;;;;;7.08;100.00;94766.31;6071184;23;20192;-80
2022/04/06 04:10:33;;;;;;;5.70;5.10;;;;;;;7.12;100.00;94756.47;6095193;23;20161;-82
2022/04/06 04:12:59;;;;;;;7.33;4.87;;;;;;;7.06;100.00;94763.84;6073380;23;20152;-84
2022/04/06 04:15:24;;;;;;;6.03;5.03;;;;;;;7.03;100.00;94756.41;6073887;23;20165;-83
2022/04/06 04:17:49;;;;;;;5.53;4.63;;;;;;;7.12;100.00;94762.47;6073192;23;20156;-84
2022/04/06 04:20:14;;;;;;;6.00;3.90;;;;;;;7.02;100.00;94759.94;6072626;23;20215;-82
2022/04/06 04:22:40;;;;;;;9.37;4.90;;;;;;;7.14;100.00;94760.53;6071936;23;20525;-83
2022/04/06 04:25:06;;;;;;;8.03;4.10;;;;;;;7.11;100.00;94750.50;6071935;23;20165;-84
2022/04/06 04:27:31;;;;;;;4.50;3.57;;;;;;;7.12;100.00;94759.06;6071002;23;20259;-83
2022/04/06 04:29:57;;;;;;;5.10;4.33;;;;;;;7.14;100.00;94763.13;6071976;23;20231;-83
2022/04/06 04:32:23;;;;;;;4.73;3.90;;;;;;;7.01;100.00;94752.34;6071038;23;20156;-83
2022/04/06 04:34:48;;;;;;;5.63;4.20;;;;;;;7.12;100.00;94749.56;6095453;23;20232;-83
2022/04/06 04:37:13;;;;;;;5.47;3.93;;;;;;;7.07;100.00;94744.03;6071881;23;20188;-82
2022/04/06 04:39:39;;;;;;;4.77;4.33;;;;;;;7.12;100.00;94743.56;6095493;23;20168;-81
2022/04/06 04:42:04;;;;;;;5.43;4.63;;;;;;;7.06;100.00;94744.97;6069816;23;20264;-84
2022/04/06 04:44:30;;;;;;;5.23;4.73;;;;;;;7.12;100.00;94744.38;6070616;23;20164;-83
2022/04/06 04:46:55;;;;;;;4.30;3.73;;;;;;;7.06;100.00;94745.78;6077290;23;20620;-82
2022/04/06 04:49:20;;;;;;;4.83;3.67;;;;;;;7.03;100.00;94743.50;6094822;23;20172;-86
2022/04/06 04:51:48;;;;;;;4.17;3.70;;;;;;;7.10;100.00;94739.38;6094083;23;20493;-87
2022/04/06 04:54:14;;;;;;;8.63;5.73;;;;;;;7.07;100.00;94744.03;6094422;23;20156;-85
2022/04/06 04:56:41;;;;;;;5.73;4.40;;;;;;;7.05;100.00;94738.97;6096250;23;20178;-82
2022/04/06 04:59:07;;;;;;;6.33;4.40;;;;;;;7.05;100.00;94743.34;6094215;23;20507;-82
2022/04/06 05:01:32;;;;;;;10.47;5.50;;;;;;;7.06;100.00;94752.69;6045479;23;20212;-83
2022/04/06 05:03:58;;;;;;;5.00;4.20;;;;;;;7.04;100.00;94745.09;6072362;23;20179;-84
2022/04/06 05:06:23;;;;;;;7.03;4.87;;;;;;;7.05;100.00;94741.56;6071780;23;20555;-83
2022/04/06 05:08:48;;;;;;;7.87;4.70;;;;;;;7.10;100.00;94739.38;6070146;23;20228;-84
2022/04/06 05:11:15;;;;;;;5.40;4.60;;;;;;;7.09;100.00;94739.53;6069345;23;20160;-82
2022/04/06 05:13:41;;;;;;;6.03;4.30;;;;;;;7.07;100.00;94738.88;6094216;23;20588;-84
2022/04/06 05:16:06;;;;;;;4.97;4.13;;;;;;;7.16;100.00;94732.81;6094001;23;20179;-82
2022/04/06 05:18:31;;;;;;;7.27;4.43;;;;;;;7.19;100.00;94735.09;6069954;23;20163;-82
2022/04/06 05:20:57;;;;;;;4.87;4.23;;;;;;;7.24;100.00;94734.66;6069616;23;20165;-83
2022/04/06 05:23:22;;;;;;;6.67;5.00;;;;;;;7.16;100.00;94732.00;6093157;23;20167;-82
2022/04/06 05:25:48;;;;;;;7.47;4.97;;;;;;;7.23;100.00;94739.00;6093670;23;20694;-82
2022/04/06 05:28:15;;;;;;;6.97;5.53;;;;;;;7.23;100.00;94738.19;6093760;23;20156;-81
2022/04/06 05:30:41;;;;;;;6.80;5.20;;;;;;;7.29;100.00;94740.19;6069754;23;20200;-82
2022/04/06 05:33:06;;;;;;;5.77;4.43;;;;;;;7.14;100.00;94745.03;6093460;23;20495;-82
2022/04/06 05:35:32;;;;;;;5.47;4.10;;;;;;;7.18;100.00;94735.25;6095129;23;20156;-81
2022/04/06 05:37:58;;;;;;;5.20;3.93;;;;;;;7.31;100.00;94733.91;6070009;23;20156;-83
2022/04/06 05:40:23;;;;;;;5.43;3.93;;;;;;;7.38;100.00;94731.56;6094175;23;20231;-82
2022/04/06 05:42:49;;;;;;;5.27;4.27;;;;;;;7.42;100.00;94742.41;6045153;23;20180;-83
2022/04/06 05:45:15;;;;;;;7.73;4.70;;;;;;;7.34;100.00;94745.75;6044800;23;20160;-83
2022/04/06 05:47:42;;;;;;;5.33;4.10;;;;;;;7.41;100.00;94740.78;6069937;23;20239;-82
2022/04/06 05:50:08;;;;;;;7.57;3.90;;;;;;;7.39;100.00;94739.16;6094174;23;20164;-82
2022/04/06 05:52:34;;;;;;;5.07;3.97;;;;;;;7.43;100.00;94747.44;6093029;23;20149;-84
2022/04/06 05:55:00;;;;;;;5.57;3.53;;;;;;;7.45;100.00;94747.28;6093882;23;20149;-83
2022/04/06 05:57:25;;;;;;;8.03;3.83;;;;;;;7.42;100.00;94744.97;6068126;23;20180;-84
2022/04/06 05:59:50;;;;;;;7.63;4.60;;;;;;;7.31;100.00;94748.59;6093092;23;20171;-84
2022/04/06 06:02:16;;;;;;;5.63;4.23;;;;;;;7.39;100.00;94746.09;6068821;23;20692;-83
2022/04/06 06:04:41;;;;;;;5.60;4.50;;;;;;;7.30;100.00;94745.22;6064667;23;20145;-82
2022/04/06 06:07:07;;;;;;;6.50;5.70;;;;;;;7.43;100.00;94750.03;6068055;23;20187;-81
2022/04/06 06:09:33;;;;;;;8.17;7.37;;;;;;;7.51;100.00;94747.53;6069179;23;20164;-83
2022/04/06 06:11:59;;;;;;;5.67;4.80;;;;;;;7.49;100.00;94746.81;6067949;23;20160;-82
2022/04/06 06:14:25;;;;;;;6.63;4.97;;;;;;;7.54;100.00;94746.41;6092651;23;20164;-81
2022/04/06 06:16:50;;;;;;;8.07;6.10;;;;;;;7.65;100.00;94746.16;6069646;23;20206;-84
2022/04/06 06:19:16;;;;;;;6.30;4.53;;;;;;;7.65;100.00;94739.22;6069427;23;20165;-83
2022/04/06 06:21:41;;;;;;;6.10;4.60;;;;;;;7.75;100.00;94748.66;6067227;23;20192;-81
2022/04/06 06:24:07;;;;;;;7.00;4.73;;;;;;;7.80;100.00;94757.59;6069468;23;20670;-82
2022/04/06 06:26:37;;;;;;;10.20;8.60;;;;;;;7.85;100.00;94749.38;6045777;23;20184;-84
2022/04/06 06:29:03;;;;;;;8.47;7.27;;;;;;;7.76;100.00;94748.50;6069082;23;20227;-82
2022/04/06 06:31:28;;;;;;;4.37;3.90;;;;;;;7.80;100.00;94746.44;6092763;23;20192;-83
2022/04/06 06:33:57;;;;;;;5.30;4.07;;;;;;;7.81;100.00;94745.50;6068894;23;20164;-83
2022/04/06 06:36:25;;;;;;;5.07;3.30;;;;;;;7.72;100.00;94741.22;6045046;23;20235;-83
2022/04/06 06:38:51;;;;;;;4.20;3.43;;;;;;;7.81;100.00;94748.06;6069099;23;20161;-83
2022/04/06 06:41:18;;;;;;;3.97;3.23;;;;;;;7.83;100.00;94746.94;6068378;23;20189;-83
2022/04/06 06:43:44;;;;;;;4.77;3.40;;;;;;;7.84;100.00;94747.75;6045006;23;20168;-82
2022/04/06 06:46:10;;;;;;;4.10;3.27;;;;;;;7.85;100.00;94744.22;6044967;23;20263;-82
2022/04/06 06:48:35;;;;;;;2.97;2.73;;;;;;;7.81;100.00;94748.06;6092862;23;20575;-81
2022/04/06 06:51:00;;;;;;;2.93;2.67;;;;;;;7.82;100.00;94747.91;6068910;23;20160;-83
2022/04/06 06:53:26;;;;;;;3.77;3.17;;;;;;;8.00;100.00;94752.25;6068803;23;20187;-82
2022/04/06 06:55:51;;;;;;;4.60;3.33;;;;;;;8.10;100.00;94745.19;6069555;23;20176;-83
2022/04/06 06:58:16;;;;;;;3.13;2.63;;;;;;;8.13;100.00;94744.91;6093163;23;20161;-83
2022/04/06 07:00:41;;;;;;;4.07;3.30;;;;;;;8.17;100.00;94739.28;6070704;23;20167;-81
2022/04/06 07:03:07;;;;;;;3.67;2.50;;;;;;;8.12;99.79;94736.31;6069647;23;20188;-83
2022/04/06 07:05:32;;;;;;;4.73;2.43;;;;;;;8.35;99.31;94741.03;6070343;23;20619;-82
2022/04/06 07:07:59;;;;;;;2.33;2.13;;;;;;;8.26;98.73;94732.38;6070197;23;20161;-83
2022/04/06 07:10:25;;;;;;;3.23;2.67;;;;;;;8.28;98.00;94735.59;6071457;23;20196;-82
2022/04/06 07:12:51;;;;;;;5.20;2.60;;;;;;;8.25;98.05;94735.91;6046302;23;20145;-83
2022/04/06 07:15:17;;;;;;;3.27;2.40;;;;;;;8.20;98.28;94732.97;6046534;23;20157;-83
2022/04/06 07:17:42;;;;;;;3.13;2.07;;;;;;;8.20;97.71;94731.19;6071000;23;20548;-81
2022/04/06 07:20:09;;;;;;;2.00;1.80;;;;;;;8.39;97.20;94742.31;6071461;23;20203;-82
2022/04/06 07:22:34;;;;;;;3.60;2.30;;;;;;;8.36;97.72;94734.88;6070591;23;20184;-83
2022/04/06 07:24:59;;;;;;;3.23;2.53;;;;;;;8.48;97.00;94733.63;6071557;23;20165;-84
2022/04/06 07:27:25;;;;;;;3.80;2.80;;;;;;;8.50;96.91;94734.31;6071411;23;20646;-83
2022/04/06 07:29:51;;;;;;;3.77;2.10;;;;;;;8.50;96.48;94736.91;6071535;23;20172;-83
2022/04/06 07:32:17;;;;;;;2.77;2.00;;;;;;;8.55;96.27;94742.41;6070556;23;20157;-83
2022/04/06 07:34:43;;;;;;;2.47;1.90;;;;;;;8.24;96.18;94735.13;6071588;23;20498;-82
2022/04/06 07:37:08;;;;;;;3.57;2.10;;;;;;;8.52;95.35;94734.97;6071809;23;20188;-83
2022/04/06 07:39:34;;;;;;;2.90;2.30;;;;;;;8.14;95.69;94742.16;6071105;23;20171;-83
2022/04/06 07:41:59;;;;;;;4.37;2.33;;;;;;;8.26;94.71;94734.16;6093356;23;20225;-81
2022/04/06 07:44:24;;;;;;;2.80;2.20;;;;;;;8.50;93.75;94731.72;6070964;23;20507;-82
2022/04/06 07:46:50;;;;;;;2.33;2.13;;;;;;;8.57;92.31;94734.47;6095189;23;20654;-82
2022/04/06 07:49:16;;;;;;;2.97;1.87;;;;;;;8.54;92.76;94730.44;6071762;23;20629;-82
2022/04/06 07:51:41;;;;;;;2.20;2.00;;;;;;;8.58;92.36;94736.13;6094041;23;20224;-81
2022/04/06 07:54:07;;;;;;;2.27;2.07;;;;;;;8.87;91.57;94717.63;6070315;23;20157;-82
2022/04/06 07:56:32;;;;;;;2.33;1.97;;;;;;;9.06;89.24;94714.75;6071683;23;20181;-82
2022/04/06 07:58:57;;;;;;;5.37;1.93;;;;;;;9.06;87.44;94720.75;6070548;23;20164;-82
2022/04/06 08:01:23;;;;;;;2.33;1.73;;;;;;;9.32;85.87;94723.22;6070683;23;20236;-82
2022/04/06 08:03:48;;;;;;;2.73;2.03;;;;;;;9.61;84.63;94720.16;6094902;23;20157;-82
2022/04/06 08:06:13;;;;;;;2.10;1.87;;;;;;;9.47;84.11;94720.03;6095111;23;20666;-82
2022/04/06 08:08:39;;;;;;;2.63;1.83;;;;;;;9.54;83.53;94718.38;6095759;23;20160;-85
2022/04/06 08:11:05;;;;;;;2.40;1.80;;;;;;;9.74;83.04;94722.28;6096141;23;20595;-82
2022/04/06 08:13:33;;;;;;;2.93;2.20;;;;;;;9.60;81.60;94718.56;6071275;23;20159;-82
2022/04/06 08:15:59;;;;;;;2.70;1.93;;;;;;;9.55;82.00;94725.22;6047810;23;20659;-81
2022/04/06 08:18:25;;;;;;;3.37;2.20;;;;;;;9.52;81.53;94728.09;6071896;23;20149;-83
2022/04/06 08:20:50;;;;;;;3.83;2.20;;;;;;;9.49;81.53;94715.47;6047135;23;20156;-81
2022/04/06 08:23:17;;;;;;;2.00;1.70;;;;;;;9.20;80.52;94726.31;6100946;23;20169;-82
2022/04/06 08:25:43;;;;;;;2.80;2.27;;;;;;;9.56;80.37;94726.84;6122021;23;20188;-78
2022/04/06 08:28:08;;;;;;;3.03;2.30;;;;;;;9.41;80.53;94720.66;6098506;23;20148;-78
2022/04/06 08:30:40;;;;;;;6.00;2.73;;;;;;;9.43;79.13;94721.28;6105366;23;20175;-82
2022/04/06 08:33:06;;;;;;;2.40;2.13;;;;;;;9.34;80.61;94723.88;6047606;23;20162;-81
2022/04/06 08:35:32;;;;;;;2.03;1.83;;;;;;;9.46;79.17;94711.44;6071386;23;20548;-82
2022/04/06 08:37:57;;;;;;;3.57;2.33;;;;;;;9.71;79.11;94714.00;6094550;23;20157;-80
2022/04/06 08:40:23;;;;;;;2.80;2.07;;;;;;;9.64;78.97;94719.88;6070870;23;20169;-80
2022/04/06 08:42:48;;;;;;;1.50;1.37;;;;;;;9.46;78.38;94721.00;6069870;23;20268;-81
2022/04/06 08:45:16;;;;;;;2.57;1.30;;;;;;;9.66;77.09;94717.09;6095629;23;20160;-80
2022/04/06 08:47:42;;;;;;;1.20;1.10;;;;;;;9.36;78.76;94724.56;6095161;23;20489;-81
2022/04/06 08:50:07;;;;;;;1.43;1.33;;;;;;;9.20;79.68;94710.75;6071675;23;20160;-81
2022/04/06 08:52:34;;;;;;;1.33;1.10;;;;;;;9.15;79.90;94719.00;6047463;23;20168;-81
2022/04/06 08:54:59;;;;;;;1.50;1.40;;;;;;;9.44;79.49;94720.31;6070675;23;20164;-83
2022/04/06 08:57:26;;;;;;;0.87;0.87;;;;;;;9.22;79.59;94721.75;6071718;23;20205;-81
2022/04/06 08:59:52;;;;;;;1.10;1.00;;;;;;;9.13;79.55;94720.94;6071939;23;20215;-82
2022/04/06 09:02:21;;;;;;;1.23;1.03;;;;;;;9.26;79.75;94715.28;6070802;23;20271;-81
2022/04/06 09:04:51;;;;;;;0.90;0.70;;;;;;;9.36;79.56;94710.75;6071711;23;20682;-81
2022/04/06 09:07:18;;;;;;;0.70;0.70;;;;;;;9.50;78.51;94709.31;6071387;23;20200;-82
2022/04/06 09:09:48;;;;;;;0.67;0.67;;;;;;;9.45;78.28;94707.19;6070180;23;20160;-83
2022/04/06 09:12:17;;;;;;;0.60;0.50;;;;;;;9.32;77.57;94705.09;6094832;23;20137;-83
2022/04/06 09:14:42;;;;;;;0.60;0.60;;;;;;;9.04;79.18;94709.75;6048034;23;20180;-84
2022/04/06 09:17:08;;;;;;;1.70;0.60;;;;;;;9.07;78.88;94709.41;6071282;23;20212;-83
2022/04/06 09:19:37;;;;;;;0.67;0.60;;;;;;;9.24;78.82;94723.22;6094811;23;20156;-81
2022/04/06 09:22:07;;;;;;;0.63;0.63;;;;;;;9.04;78.84;94719.28;6069961;23;20184;-84
2022/04/06 09:24:32;;;;;;;0.70;0.60;;;;;;;9.68;77.18;94725.53;6047534;23;20157;-83
2022/04/06 09:27:02;;;;;;;0.70;0.70;;;;;;;10.15;75.07;94722.25;6094607;23;20177;-80
2022/04/06 09:29:28;;;;;;;0.70;0.70;;;;;;;10.32;74.89;94723.06;6046695;23;20160;-80
2022/04/06 09:31:54;;;;;;;1.33;0.90;;;;;;;10.65;72.83;94723.78;6069625;23;20231;-81
2022/04/06 09:34:23;;;;;;;1.37;0.93;;;;;;;11.06;72.46;94727.81;6070871;23;20157;-82
2022/04/06 09:36:56;;;;;;;2.20;0.80;;;;;;;11.05;71.12;94721.00;6070360;23;20208;-81
2022/04/06 09:39:41;;;;;;;3.03;0.90;;;;;;;10.69;69.86;94723.28;6072946;23;20137;-80
2022/04/06 09:42:06;;;;;;;2.17;1.10;;;;;;;10.75;70.33;94724.38;6070049;23;20197;-80
2022/04/06 09:47:38;;;;;;;1.20;1.10;;;;;;;11.17;69.77;94713.63;6075607;23;20231;-82
2022/04/06 09:50:13;;;;;;;0.97;0.63;;;;;;;11.04;69.88;94713.38;6095879;23;20132;-81
2022/04/06 09:52:39;;;;;;;0.63;0.63;;;;;;;11.13;70.02;94706.34;6046285;23;20155;-81
2022/04/06 09:55:06;;;;;;;1.80;0.70;;;;;;;11.62;69.30;94699.84;6070829;23;20145;-82
2022/04/06 09:57:44;;;;;;;1.50;0.70;;;;;;;11.72;67.44;94696.19;6046668;23;20200;-81
2022/04/06 10:00:12;;;;;;;0.80;0.67;;;;;;;11.39;67.73;94696.41;6071411;23;20223;-80
2022/04/06 10:02:40;;;;;;;0.40;0.40;;;;;;;11.71;66.67;94694.56;6069968;23;20271;-81
2022/04/06 10:05:06;;;;;;;2.37;1.10;;;;;;;11.97;67.67;94694.22;6071118;23;20145;-81
2022/04/06 10:07:31;;;;;;;0.70;0.70;;;;;;;11.97;66.34;94687.22;6045521;23;20227;-80
2022/04/06 10:09:57;;;;;;;0.60;0.60;;;;;;;12.37;67.50;94685.22;6045366;23;20216;-80
2022/04/06 10:12:23;;;;;;;1.83;0.90;;;;;;;11.78;66.21;94683.28;6044808;23;20184;-80
2022/04/06 10:14:48;;;;;;;1.00;0.80;;;;;;;12.58;65.21;94677.47;6045530;23;20164;-78
2022/04/06 10:17:14;;;;;;;4.10;0.87;;;;;;;12.52;65.45;94680.78;6046499;23;20176;-81
2022/04/06 10:19:47;;;;;;;0.70;0.70;;;;;;;12.50;65.52;94687.19;6046034;23;20478;-79
2022/04/06 10:22:20;;;;;;;5.90;1.60;;;;;;;12.59;64.46;94678.28;6045175;23;20176;-80
2022/04/06 10:25:12;;;;;;;4.90;1.30;;;;;;;12.48;65.18;94682.97;6069656;23;20148;-82
2022/04/06 10:27:46;;;;;;;0.80;0.80;;;;;;;12.00;66.17;94680.84;6069535;23;20554;-81
2022/04/06 10:30:17;;;;;;;1.43;0.93;;;;;;;11.98;65.47;94678.44;6069120;23;20172;-81
2022/04/06 10:32:44;;;;;;;1.53;0.90;;;;;;;11.88;66.18;94670.06;6046128;23;20161;-81
2022/04/06 10:35:37;;;;;;;1.20;1.10;;;;;;;11.93;65.43;94657.34;6097437;23;20205;-83
2022/04/06 10:38:02;;;;;;;1.17;1.07;;;;;;;12.00;65.40;94650.44;6047732;23;20169;-82
2022/04/06 10:40:32;;;;;;;1.57;1.20;;;;;;;11.97;64.66;94653.41;6071074;23;20291;-81
2022/04/06 10:43:44;;;;;;;1.17;1.00;;;;;;;12.51;62.93;94653.13;6047875;23;20496;-83
2022/04/06 10:46:14;;;;;;;1.20;1.10;;;;;;;12.61;64.37;94642.44;6071662;23;20184;-80
2022/04/06 10:49:06;;;;;;;1.57;1.00;;;;;;;12.97;63.25;94639.84;6096528;23;20591;-79
2022/04/06 10:51:39;;;;;;;1.13;0.90;;;;;;;13.07;62.52;94639.53;6083422;23;20615;-79
2022/04/06 10:54:13;;;;;;;0.87;0.80;;;;;;;12.87;61.92;94628.91;6095449;23;20195;-79
2022/04/06 10:56:54;;;;;;;1.07;0.97;;;;;;;12.76;61.77;94623.19;6096846;23;20199;-78
2022/04/06 10:59:29;;;;;;;2.57;1.10;;;;;;;12.53;62.43;94619.09;6070771;23;20156;-77
2022/04/06 11:02:13;;;;;;;0.97;0.90;;;;;;;12.31;62.66;94623.44;6047086;23;20235;-81
2022/04/06 11:04:42;;;;;;;1.87;1.10;;;;;;;12.68;62.92;94607.66;6070868;23;20157;-81
2022/04/06 11:07:08;;;;;;;1.07;0.93;;;;;;;12.70;62.47;94608.28;6071946;23;20259;-80
2022/04/06 11:12:20;;;;;;;1.33;0.83;;;;;;;12.89;61.54;94608.69;6094889;23;20172;-80
2022/04/06 11:14:47;;;;;;;1.40;0.70;;;;;;;12.68;60.44;94605.06;6092947;23;20596;-81
2022/04/06 11:20:05;;;;;;;1.70;0.70;;;;;;;13.18;60.28;94606.00;6097249;23;20172;-80
2022/04/06 11:22:30;;;;;;;1.90;1.13;;;;;;;13.10;61.24;94602.69;6070383;23;20228;-79
2022/04/06 11:24:56;;;;;;;1.10;1.00;;;;;;;13.35;60.77;94605.78;6095142;23;20152;-79
2022/04/06 11:27:34;;;;;;;2.40;0.90;;;;;;;13.51;59.94;94606.28;6071117;23;20177;-79
2022/04/06 11:30:05;;;;;;;1.80;0.90;;;;;;;13.76;59.86;94588.44;6070441;23;20646;-79
2022/04/06 11:32:30;;;;;;;1.00;0.80;;;;;;;14.06;59.18;94596.06;6046065;23;20152;-80
2022/04/06 11:35:05;;;;;;;3.00;1.30;;;;;;;13.99;58.49;94590.00;6070653;23;20211;-81
2022/04/06 11:37:31;;;;;;;1.10;1.00;;;;;;;13.32;58.10;94584.28;6070531;23;20239;-78
2022/04/06 11:39:58;;;;;;;1.20;0.90;;;;;;;13.21;58.57;94584.78;6070455;23;20160;-80
2022/04/06 11:42:23;;;;;;;1.10;0.70;;;;;;;13.60;59.23;94586.09;6094017;23;20259;-82
2022/04/06 11:44:48;;;;;;;1.40;0.80;;;;;;;13.19;58.91;94575.50;6070445;23;20599;-79
2022/04/06 11:47:14;;;;;;;1.50;0.70;;;;;;;13.28;58.72;94579.63;6094518;23;20239;-80